Time;durP1;ratioP1;P1;durP2;ratioP2;P2;SDS_P1;SDS_P2;PMS_P1;PMS_P2;Temp;Humidity;BMP_temperature;BMP_pressure;BME280_temperature;BME280_humidity;BME280_pressure;Samples;Min_cycle;Max_cycle;Signal;HPM_P1;HPM_P2
2022/07/06 00:01:39;;;;;;;3.77;2.27;;;15.60;83.10;;;;;;5011214;28;20493;-60
2022/07/06 00:04:07;;;;;;;3.03;1.90;;;15.60;82.30;;;;;;5012862;28;20954;-60
2022/07/06 00:06:35;;;;;;;4.00;1.83;;;15.70;81.90;;;;;;5012955;28;20532;-62
2022/07/06 00:09:04;;;;;;;2.50;1.80;;;15.70;81.50;;;;;;5012572;28;20516;-60
2022/07/06 00:11:31;;;;;;;3.20;1.50;;;15.70;80.90;;;;;;5012866;28;20551;-61
2022/07/06 00:13:59;;;;;;;1.90;1.30;;;15.70;80.10;;;;;;5012711;28;20520;-61
2022/07/06 00:16:26;;;;;;;6.00;2.00;;;15.70;79.50;;;;;;5018590;28;20507;-61
2022/07/06 00:18:53;;;;;;;3.30;1.40;;;15.70;79.20;;;;;;5015513;28;20510;-61
2022/07/06 00:21:21;;;;;;;3.70;1.40;;;15.70;78.90;;;;;;5013098;28;20559;-63
2022/07/06 00:23:51;;;;;;;3.77;1.80;;;15.60;78.60;;;;;;5016139;28;20812;-61
2022/07/06 00:26:19;;;;;;;1.80;1.60;;;15.60;78.70;;;;;;5021581;28;20473;-61
2022/07/06 00:28:46;;;;;;;3.30;1.97;;;15.50;78.70;;;;;;5022342;28;20519;-62
2022/07/06 00:31:13;;;;;;;2.60;1.63;;;15.50;78.90;;;;;;5023067;28;20493;-61
2022/07/06 00:33:40;;;;;;;1.77;1.57;;;15.50;79.00;;;;;;5019466;28;20469;-62
2022/07/06 00:36:08;;;;;;;5.30;1.63;;;15.50;79.30;;;;;;5013130;28;20541;-61
2022/07/06 00:38:35;;;;;;;4.17;1.83;;;15.40;79.60;;;;;;5022593;28;20523;-61
2022/07/06 00:41:04;;;;;;;3.73;2.83;;;15.40;80.00;;;;;;5023031;28;20502;-59
2022/07/06 00:43:48;;;;;;;3.27;1.73;;;15.30;80.60;;;;;;5022375;28;20462;-61
2022/07/06 00:46:15;;;;;;;3.57;1.70;;;15.30;81.30;;;;;;5023127;28;20466;-60
2022/07/06 00:48:42;;;;;;;2.97;2.00;;;15.30;81.90;;;;;;5019555;28;20879;-60
2022/07/06 00:51:10;;;;;;;1.70;1.33;;;15.30;82.40;;;;;;5016439;28;20489;-60
2022/07/06 00:53:38;;;;;;;3.20;1.70;;;15.30;83.40;;;;;;5016721;28;20486;-60
2022/07/06 00:56:07;;;;;;;2.80;2.20;;;15.30;83.10;;;;;;5015118;28;20477;-60
2022/07/06 00:58:34;;;;;;;2.27;1.93;;;15.30;83.60;;;;;;5016425;28;20470;-61
2022/07/06 01:01:02;;;;;;;5.03;1.83;;;15.30;83.80;;;;;;5016805;28;20517;-60
2022/07/06 01:03:29;;;;;;;2.50;1.77;;;15.30;84.00;;;;;;5017612;28;20511;-62
2022/07/06 01:05:56;;;;;;;3.87;1.80;;;15.30;84.20;;;;;;5020951;28;20500;-60
2022/07/06 01:08:24;;;;;;;6.30;1.97;;;15.30;84.30;;;;;;5020443;28;20458;-60
2022/07/06 01:10:52;;;;;;;2.10;1.53;;;15.30;84.50;;;;;;5020010;28;21012;-63
2022/07/06 01:13:21;;;;;;;7.97;1.40;;;15.30;84.50;;;;;;5003924;28;20461;-60
2022/07/06 01:15:48;;;;;;;2.20;1.63;;;15.30;84.60;;;;;;5017737;28;20482;-60
2022/07/06 01:18:16;;;;;;;3.70;1.90;;;15.20;84.70;;;;;;5016327;28;20461;-60
2022/07/06 01:20:44;;;;;;;4.80;1.80;;;15.20;84.90;;;;;;5016335;28;21006;-59
2022/07/06 01:23:12;;;;;;;5.37;1.67;;;15.20;85.30;;;;;;5015506;28;20465;-59
2022/07/06 01:25:39;;;;;;;3.93;1.53;;;15.20;85.50;;;;;;5015557;28;20461;-61
2022/07/06 01:28:06;;;;;;;3.30;1.80;;;15.20;85.50;;;;;;5016020;28;21030;-60
2022/07/06 01:30:34;;;;;;;2.33;1.80;;;15.20;85.70;;;;;;5015655;28;20572;-60
2022/07/06 01:33:01;;;;;;;3.03;1.67;;;15.20;85.80;;;;;;5016604;28;20486;-61
2022/07/06 01:35:32;;;;;;;4.03;1.73;;;15.20;86.00;;;;;;5017389;28;20879;-60
2022/07/06 01:38:01;;;;;;;3.30;1.87;;;15.20;86.20;;;;;;5015392;28;20513;-60
2022/07/06 01:40:28;;;;;;;2.57;1.50;;;15.20;86.40;;;;;;5016470;28;21011;-61
2022/07/06 01:42:56;;;;;;;5.60;2.13;;;15.20;86.30;;;;;;5015015;28;20563;-60
2022/07/06 01:45:23;;;;;;;4.80;1.70;;;15.20;86.10;;;;;;5016018;28;20992;-60
2022/07/06 01:47:50;;;;;;;5.73;1.50;;;15.20;85.90;;;;;;5014723;28;20470;-61
2022/07/06 01:50:17;;;;;;;3.20;1.80;;;15.10;86.00;;;;;;5014681;28;20461;-60
2022/07/06 01:52:45;;;;;;;7.30;2.27;;;15.10;86.20;;;;;;5014906;28;20553;-61
2022/07/06 01:55:13;;;;;;;2.73;1.77;;;15.10;86.50;;;;;;5014946;28;20481;-60
2022/07/06 01:57:41;;;;;;;3.30;2.20;;;15.10;86.70;;;;;;5016276;28;20458;-64
2022/07/06 02:00:10;;;;;;;2.13;1.73;;;15.10;87.00;;;;;;5014563;28;21020;-63
2022/07/06 02:02:37;;;;;;;7.83;1.83;;;15.00;87.10;;;;;;4997112;28;20543;-63
2022/07/06 02:05:04;;;;;;;6.53;1.77;;;15.10;87.40;;;;;;5014235;28;20502;-63
2022/07/06 02:07:32;;;;;;;2.37;1.70;;;15.00;87.20;;;;;;5008259;28;20453;-62
2022/07/06 02:09:59;;;;;;;3.27;1.67;;;15.00;87.50;;;;;;5015402;28;20485;-62
2022/07/06 02:12:28;;;;;;;3.03;1.83;;;15.00;87.80;;;;;;5013926;28;20505;-63
2022/07/06 02:14:55;;;;;;;3.40;1.97;;;15.00;88.10;;;;;;5014420;28;20874;-64
2022/07/06 02:17:22;;;;;;;1.77;1.53;;;14.90;88.50;;;;;;5013210;28;20470;-63
2022/07/06 02:19:50;;;;;;;3.00;1.60;;;14.90;89.00;;;;;;5023141;28;20479;-63
2022/07/06 02:22:17;;;;;;;2.83;1.40;;;14.80;89.20;;;;;;5020492;28;20481;-62
2022/07/06 02:24:44;;;;;;;3.40;1.83;;;14.90;90.00;;;;;;5021074;28;20489;-63
2022/07/06 02:27:11;;;;;;;3.00;1.90;;;14.80;90.10;;;;;;5014595;28;20579;-64
2022/07/06 02:29:40;;;;;;;4.43;1.93;;;14.80;90.30;;;;;;5014917;28;20565;-63
2022/07/06 02:32:08;;;;;;;2.63;1.97;;;14.80;90.50;;;;;;5014092;28;20478;-63
2022/07/06 02:34:35;;;;;;;4.00;1.80;;;14.70;90.50;;;;;;5016979;28;20489;-64
2022/07/06 02:37:03;;;;;;;3.60;2.17;;;14.70;90.70;;;;;;5018354;28;20461;-63
2022/07/06 02:39:30;;;;;;;2.60;2.07;;;14.70;90.70;;;;;;5014075;28;20486;-63
2022/07/06 02:41:57;;;;;;;3.93;2.03;;;14.70;90.80;;;;;;5015173;28;20473;-63
2022/07/06 02:44:25;;;;;;;2.63;1.83;;;14.70;90.90;;;;;;5014845;28;20524;-64
2022/07/06 02:46:53;;;;;;;3.23;1.67;;;14.70;91.00;;;;;;5012540;28;20461;-64
2022/07/06 02:49:21;;;;;;;2.93;2.27;;;14.70;91.10;;;;;;5011029;28;20523;-65
2022/07/06 02:51:48;;;;;;;2.00;1.70;;;14.70;91.10;;;;;;5008808;28;20520;-64
2022/07/06 02:54:15;;;;;;;3.87;1.40;;;14.70;91.20;;;;;;5013714;28;20517;-64
2022/07/06 02:56:44;;;;;;;4.53;1.90;;;14.70;91.30;;;;;;5012612;28;20613;-64
2022/07/06 02:59:11;;;;;;;2.87;1.40;;;14.70;91.30;;;;;;5014405;28;20466;-64
2022/07/06 03:01:38;;;;;;;5.53;2.20;;;14.70;91.40;;;;;;5013983;28;20540;-65
2022/07/06 03:04:07;;;;;;;4.23;2.00;;;14.70;91.40;;;;;;5013519;28;20461;-64
2022/07/06 03:06:34;;;;;;;3.60;1.70;;;14.70;91.60;;;;;;5011682;28;20466;-64
2022/07/06 03:09:01;;;;;;;3.00;1.73;;;14.70;91.70;;;;;;5013480;28;20470;-64
2022/07/06 03:11:29;;;;;;;4.53;2.20;;;14.70;91.80;;;;;;5014023;28;20565;-63
2022/07/06 03:13:56;;;;;;;2.13;1.60;;;14.60;91.80;;;;;;5013502;28;20498;-63
2022/07/06 03:16:23;;;;;;;4.23;2.30;;;14.60;92.00;;;;;;5013677;28;20482;-63
2022/07/06 03:18:50;;;;;;;5.77;2.60;;;14.60;92.10;;;;;;5012689;28;20535;-64
2022/07/06 03:21:19;;;;;;;2.63;1.80;;;14.60;92.30;;;;;;5011511;28;20520;-65
2022/07/06 03:23:46;;;;;;;4.77;2.07;;;14.60;92.40;;;;;;5014209;28;20519;-64
2022/07/06 03:26:14;;;;;;;2.87;1.50;;;14.60;92.50;;;;;;5012927;28;20520;-64
2022/07/06 03:28:41;;;;;;;7.10;2.20;;;14.60;92.60;;;;;;5012642;28;20504;-63
2022/07/06 03:31:08;;;;;;;2.93;1.63;;;14.60;92.70;;;;;;5013697;28;20569;-63
2022/07/06 03:33:36;;;;;;;4.43;1.83;;;14.50;92.80;;;;;;5013145;28;20902;-64
2022/07/06 03:36:04;;;;;;;5.13;1.70;;;14.60;92.90;;;;;;5012359;28;21055;-63
2022/07/06 03:38:33;;;;;;;4.83;1.87;;;14.60;92.90;;;;;;4997595;28;20469;-63
2022/07/06 03:41:00;;;;;;;3.90;2.10;;;14.60;93.10;;;;;;5012736;28;20909;-63
2022/07/06 03:43:28;;;;;;;2.80;1.77;;;14.50;93.10;;;;;;5012910;28;20881;-63
2022/07/06 03:45:55;;;;;;;4.60;1.70;;;14.50;93.20;;;;;;5014099;28;21004;-63
2022/07/06 03:48:22;;;;;;;4.20;1.70;;;14.50;93.30;;;;;;5013902;28;20465;-63
2022/07/06 03:50:50;;;;;;;3.53;2.10;;;14.50;93.40;;;;;;5012590;28;20466;-63
2022/07/06 03:53:17;;;;;;;3.27;1.87;;;14.50;93.50;;;;;;5012435;28;20474;-64
2022/07/06 03:56:27;;;;;;;6.97;2.50;;;14.50;93.50;;;;;;5013567;28;20525;-64
2022/07/06 03:58:34;;;;;;;6.17;1.90;;;14.50;93.40;;;;;;4999821;28;20468;-63
2022/07/06 04:01:01;;;;;;;4.80;2.10;;;14.60;93.40;;;;;;5012109;28;20477;-63
2022/07/06 04:03:29;;;;;;;6.43;2.33;;;14.60;93.30;;;;;;5012843;28;20536;-63
2022/07/06 04:05:56;;;;;;;4.03;1.93;;;14.60;93.30;;;;;;5011526;28;20509;-65
2022/07/06 04:09:57;;;;;;;2.57;1.90;;;14.60;93.20;;;;;;5090682;27;20577;-63
2022/07/06 04:12:24;;;;;;;4.70;2.23;;;14.60;93.50;;;;;;5088839;28;20555;-63
2022/07/06 04:14:52;;;;;;;3.10;1.90;;;14.60;93.50;;;;;;5090493;28;20450;-64
2022/07/06 04:20:04;;;;;;;4.80;2.27;;;14.70;93.40;;;;;;5061498;28;20781;-64
2022/07/06 04:22:32;;;;;;;4.57;2.23;;;14.70;93.40;;;;;;5077542;28;20824;-64
2022/07/06 04:25:00;;;;;;;4.00;1.87;;;14.70;93.50;;;;;;5068928;28;20827;-63
2022/07/06 04:27:28;;;;;;;3.77;1.80;;;14.80;93.60;;;;;;5069312;28;20883;-65
2022/07/06 04:29:55;;;;;;;7.60;2.47;;;15.00;93.70;;;;;;5085172;28;20482;-65
2022/07/06 04:32:22;;;;;;;3.30;1.90;;;15.20;93.20;;;;;;5073836;28;20521;-64
2022/07/06 04:34:49;;;;;;;3.40;1.77;;;15.30;92.70;;;;;;5074276;28;20447;-63
2022/07/06 04:37:17;;;;;;;8.80;2.30;;;15.60;92.20;;;;;;5074393;28;20479;-65
2022/07/06 04:39:44;;;;;;;5.17;1.90;;;15.80;92.10;;;;;;5071899;28;20950;-62
2022/07/06 04:42:13;;;;;;;2.43;1.83;;;16.00;91.40;;;;;;5074275;28;20970;-64
2022/07/06 04:44:40;;;;;;;4.13;2.00;;;16.20;90.80;;;;;;5072662;28;20447;-64
2022/07/06 04:47:08;;;;;;;2.50;1.83;;;16.40;90.20;;;;;;5071249;28;20984;-64
2022/07/06 04:49:35;;;;;;;4.27;1.90;;;16.60;88.70;;;;;;5073555;28;20517;-64
2022/07/06 04:52:02;;;;;;;4.30;2.10;;;16.60;87.30;;;;;;5072883;28;20537;-65
2022/07/06 04:54:30;;;;;;;8.30;2.67;;;16.50;87.60;;;;;;5062208;28;20486;-64
2022/07/06 04:56:57;;;;;;;3.63;1.70;;;16.30;87.50;;;;;;5071477;28;20521;-64
2022/07/06 04:59:26;;;;;;;5.30;1.67;;;16.20;88.80;;;;;;5072719;28;20436;-64
2022/07/06 05:01:53;;;;;;;10.43;2.30;;;16.20;89.00;;;;;;5071808;28;20472;-64
2022/07/06 05:04:20;;;;;;;4.60;1.63;;;16.20;88.80;;;;;;5069812;28;20526;-64
2022/07/06 05:06:48;;;;;;;4.00;1.67;;;16.20;88.60;;;;;;5069315;28;20459;-64
2022/07/06 05:09:15;;;;;;;7.37;1.80;;;16.20;88.50;;;;;;5070437;28;20617;-64
2022/07/06 05:11:43;;;;;;;6.03;2.60;;;16.20;88.40;;;;;;5071427;28;20523;-64
2022/07/06 05:14:11;;;;;;;1.90;1.70;;;16.30;88.40;;;;;;5068871;28;20455;-64
2022/07/06 05:16:40;;;;;;;5.90;1.80;;;16.30;88.20;;;;;;5069737;28;20866;-64
2022/07/06 05:19:07;;;;;;;3.93;2.00;;;16.30;87.80;;;;;;5068392;28;20435;-63
2022/07/06 05:21:35;;;;;;;3.33;2.07;;;16.20;88.00;;;;;;5055669;28;20828;-65
2022/07/06 05:24:02;;;;;;;3.53;1.87;;;16.30;88.40;;;;;;5055592;28;20444;-64
2022/07/06 05:26:30;;;;;;;4.33;1.90;;;16.20;88.40;;;;;;5056401;28;20510;-63
2022/07/06 05:28:57;;;;;;;5.13;2.00;;;16.30;88.70;;;;;;5056452;28;20480;-63
2022/07/06 05:31:25;;;;;;;5.00;2.20;;;16.40;88.40;;;;;;5055562;28;20494;-63
2022/07/06 05:33:54;;;;;;;10.83;3.30;;;16.40;87.90;;;;;;5056365;28;20457;-64
2022/07/06 05:36:21;;;;;;;4.63;2.03;;;16.40;87.90;;;;;;5056022;28;20501;-62
2022/07/06 05:38:49;;;;;;;3.90;1.97;;;16.50;87.60;;;;;;5055352;28;20448;-64
2022/07/06 05:41:16;;;;;;;3.43;2.13;;;16.50;87.70;;;;;;5055486;28;20547;-63
2022/07/06 05:43:44;;;;;;;5.43;2.17;;;16.40;87.70;;;;;;5055342;28;20551;-63
2022/07/06 05:46:11;;;;;;;6.00;2.20;;;16.40;87.90;;;;;;5055254;28;20547;-63
2022/07/06 05:51:25;;;;;;;7.17;1.90;;;16.40;88.10;;;;;;5055696;28;20551;-63
2022/07/06 05:53:52;;;;;;;5.50;2.30;;;16.50;88.00;;;;;;5055332;28;20481;-63
2022/07/06 05:56:20;;;;;;;5.90;2.13;;;16.50;88.10;;;;;;5054987;28;20444;-62
2022/07/06 05:58:47;;;;;;;3.40;2.37;;;16.50;87.70;;;;;;5055277;28;20854;-63
2022/07/06 06:01:14;;;;;;;5.53;2.20;;;16.50;87.70;;;;;;5054906;28;20975;-63
2022/07/06 06:03:42;;;;;;;3.93;1.73;;;16.50;87.70;;;;;;5054886;28;20960;-63
2022/07/06 06:06:09;;;;;;;7.07;1.93;;;16.50;87.70;;;;;;5054441;28;20943;-64
2022/07/06 06:08:38;;;;;;;5.20;1.73;;;16.60;87.50;;;;;;5054872;28;20479;-65
2022/07/06 06:11:05;;;;;;;2.80;1.70;;;16.70;87.10;;;;;;5054863;28;20456;-64
2022/07/06 06:13:33;;;;;;;6.57;1.83;;;16.70;86.10;;;;;;5053812;28;20491;-64
2022/07/06 06:16:00;;;;;;;3.57;1.47;;;16.70;85.90;;;;;;5054788;28;20456;-65
2022/07/06 06:18:27;;;;;;;5.13;1.77;;;16.80;85.40;;;;;;5055344;28;20543;-62
2022/07/06 06:20:55;;;;;;;4.43;1.70;;;16.90;84.70;;;;;;5055069;28;20992;-64
2022/07/06 06:23:23;;;;;;;6.40;1.80;;;16.90;83.70;;;;;;5055354;28;20502;-64
2022/07/06 06:25:51;;;;;;;5.20;1.57;;;17.00;83.00;;;;;;5054737;28;20448;-64
2022/07/06 06:28:19;;;;;;;3.73;1.67;;;17.00;82.30;;;;;;5064949;28;20516;-62
2022/07/06 06:30:46;;;;;;;3.70;1.70;;;17.00;81.40;;;;;;5061688;28;20464;-62
2022/07/06 06:33:15;;;;;;;2.60;1.30;;;17.00;81.00;;;;;;5053747;28;20510;-64
2022/07/06 06:35:45;;;;;;;2.37;1.30;;;17.00;81.00;;;;;;5054326;28;20553;-63
2022/07/06 06:38:12;;;;;;;5.60;1.70;;;16.90;80.60;;;;;;5054575;28;20440;-64
2022/07/06 06:40:40;;;;;;;5.23;1.57;;;17.00;80.40;;;;;;5054463;28;20524;-63
2022/07/06 06:43:09;;;;;;;6.20;1.80;;;17.00;80.00;;;;;;5065896;22;20552;-58
2022/07/06 06:45:36;;;;;;;6.37;1.90;;;17.10;80.40;;;;;;5014901;28;20516;-57
2022/07/06 06:48:04;;;;;;;7.97;1.77;;;17.10;79.20;;;;;;5015079;28;20504;-58
2022/07/06 06:50:31;;;;;;;3.40;1.50;;;17.00;79.40;;;;;;5014398;28;20536;-59
2022/07/06 06:52:58;;;;;;;3.80;1.70;;;17.00;79.80;;;;;;5014055;28;20884;-57
2022/07/06 06:55:26;;;;;;;3.80;1.90;;;17.00;79.70;;;;;;5013952;28;20958;-56
2022/07/06 06:57:53;;;;;;;7.80;1.70;;;17.00;79.90;;;;;;5013955;28;20466;-57
2022/07/06 07:00:22;;;;;;;6.40;2.30;;;17.10;80.00;;;;;;5014042;28;20524;-57
2022/07/06 07:02:49;;;;;;;7.07;1.93;;;17.10;79.70;;;;;;5014243;28;20544;-55
2022/07/06 07:05:16;;;;;;;4.30;1.47;;;17.20;79.20;;;;;;5014041;28;20453;-56
2022/07/06 07:07:44;;;;;;;4.93;1.50;;;17.30;78.80;;;;;;5014414;28;20529;-57
2022/07/06 07:10:11;;;;;;;8.73;1.97;;;17.30;78.10;;;;;;5016656;28;20985;-56
2022/07/06 07:12:44;;;;;;;11.00;2.10;;;17.30;77.30;;;;;;5016058;28;20469;-56
2022/07/06 07:15:12;;;;;;;2.43;1.40;;;17.40;77.20;;;;;;5015900;28;20442;-56
2022/07/06 07:17:41;;;;;;;2.70;1.70;;;17.40;76.70;;;;;;5013974;28;20952;-57
2022/07/06 07:20:10;;;;;;;2.53;1.40;;;17.40;76.30;;;;;;5013271;28;20934;-56
2022/07/06 07:22:37;;;;;;;3.50;1.73;;;17.50;75.80;;;;;;5013524;28;20524;-56
2022/07/06 07:25:07;;;;;;;2.50;1.33;;;17.70;74.90;;;;;;5013619;28;20484;-56
2022/07/06 07:27:34;;;;;;;7.03;1.73;;;17.80;73.60;;;;;;5013770;28;21024;-57
2022/07/06 07:30:02;;;;;;;3.90;1.20;;;17.80;73.10;;;;;;5014043;28;21059;-57
2022/07/06 07:32:29;;;;;;;4.30;2.00;;;17.80;72.10;;;;;;5013446;28;20454;-57
2022/07/06 07:34:58;;;;;;;3.60;1.47;;;17.80;71.40;;;;;;5013602;28;20858;-56
2022/07/06 07:37:25;;;;;;;3.40;0.90;;;17.80;70.00;;;;;;5013204;28;20474;-57
2022/07/06 07:39:52;;;;;;;3.20;1.30;;;17.80;68.80;;;;;;5016004;28;20464;-57
2022/07/06 07:42:20;;;;;;;3.80;1.17;;;17.80;68.00;;;;;;5015539;28;20446;-58
2022/07/06 07:44:47;;;;;;;2.40;1.03;;;17.90;67.00;;;;;;5013462;28;20524;-57
2022/07/06 07:47:14;;;;;;;1.80;1.17;;;17.80;66.30;;;;;;5013172;28;20446;-57
2022/07/06 07:49:42;;;;;;;3.53;1.30;;;17.80;66.30;;;;;;5013327;28;20826;-56
2022/07/06 07:52:10;;;;;;;5.27;1.30;;;17.70;66.30;;;;;;5013501;28;20450;-56
2022/07/06 07:54:38;;;;;;;5.53;1.20;;;17.70;66.00;;;;;;5013567;28;20556;-55
2022/07/06 07:57:06;;;;;;;5.03;1.63;;;17.70;65.40;;;;;;5012944;28;20481;-57
2022/07/06 07:59:34;;;;;;;2.47;1.03;;;17.70;65.00;;;;;;5012885;28;20450;-57
2022/07/06 08:02:01;;;;;;;3.10;1.13;;;17.80;64.50;;;;;;5013324;28;20449;-55
2022/07/06 08:04:28;;;;;;;2.07;0.90;;;17.90;64.30;;;;;;5014147;28;20469;-56
2022/07/06 08:06:56;;;;;;;2.73;1.40;;;18.00;63.60;;;;;;5013048;28;20496;-58
2022/07/06 08:09:25;;;;;;;2.07;1.00;;;18.10;62.40;;;;;;5013381;28;20997;-58
2022/07/06 08:11:52;;;;;;;2.17;0.93;;;18.20;61.80;;;;;;5013369;28;20545;-57
2022/07/06 08:14:19;;;;;;;3.53;1.00;;;18.30;60.80;;;;;;5012793;28;20461;-58
2022/07/06 08:16:46;;;;;;;2.37;1.30;;;18.40;60.10;;;;;;5013429;28;20445;-58
2022/07/06 08:19:14;;;;;;;3.60;1.07;;;18.40;59.70;;;;;;5013181;28;20537;-57
2022/07/06 08:21:43;;;;;;;4.03;1.53;;;18.50;59.20;;;;;;5012771;28;20450;-57
2022/07/06 08:24:10;;;;;;;1.60;1.10;;;18.60;58.80;;;;;;5013086;28;20465;-55
2022/07/06 08:26:39;;;;;;;5.13;1.20;;;18.70;58.40;;;;;;5012925;28;20541;-56
2022/07/06 08:29:07;;;;;;;3.03;1.20;;;18.90;58.20;;;;;;5012947;28;20449;-58
2022/07/06 08:31:35;;;;;;;3.47;1.00;;;19.00;57.70;;;;;;5012767;28;20793;-58
2022/07/06 08:34:03;;;;;;;4.97;1.30;;;19.10;57.00;;;;;;5012903;28;20509;-59
2022/07/06 08:36:31;;;;;;;2.40;1.37;;;19.20;56.70;;;;;;5012866;28;20454;-58
2022/07/06 08:39:12;;;;;;;6.33;1.30;;;19.30;56.30;;;;;;5013592;28;20453;-58
2022/07/06 08:41:58;;;;;;;6.87;1.30;;;19.30;55.80;;;;;;5012446;28;20455;-58
2022/07/06 08:44:43;;;;;;;2.83;1.33;;;19.40;55.40;;;;;;5013211;28;20484;-58
2022/07/06 08:47:31;;;;;;;3.40;1.20;;;19.50;55.00;;;;;;5013093;28;20434;-57
2022/07/06 08:50:12;;;;;;;4.00;0.73;;;19.40;54.10;;;;;;5012332;28;20470;-58
2022/07/06 08:52:40;;;;;;;3.00;1.13;;;19.30;54.20;;;;;;5011519;28;20576;-58
2022/07/06 08:55:10;;;;;;;3.30;1.40;;;19.20;54.40;;;;;;5012685;28;20462;-58
2022/07/06 08:57:40;;;;;;;2.13;1.13;;;19.10;54.30;;;;;;5015478;28;20958;-58
2022/07/06 09:00:09;;;;;;;3.47;1.00;;;19.20;54.10;;;;;;5017007;28;20512;-58
2022/07/06 09:02:38;;;;;;;5.43;1.20;;;19.40;53.50;;;;;;5016484;28;20470;-58
2022/07/06 09:05:07;;;;;;;3.30;1.07;;;19.50;52.60;;;;;;5016230;28;20495;-58
2022/07/06 09:07:35;;;;;;;3.67;1.27;;;19.30;52.50;;;;;;5016093;28;20449;-58
2022/07/06 09:10:03;;;;;;;4.23;0.90;;;19.30;52.80;;;;;;5014344;28;20993;-58
2022/07/06 09:12:31;;;;;;;3.00;1.00;;;19.20;52.60;;;;;;5015733;28;20540;-58
2022/07/06 09:15:00;;;;;;;5.30;1.20;;;19.10;52.50;;;;;;5014785;28;21048;-59
2022/07/06 09:17:29;;;;;;;1.67;1.10;;;19.10;52.70;;;;;;5015610;28;20449;-58
2022/07/06 09:19:57;;;;;;;2.40;0.93;;;19.20;52.80;;;;;;5015633;28;20508;-59
2022/07/06 09:22:31;;;;;;;4.50;1.20;;;19.40;52.90;;;;;;5016040;28;20822;-59
2022/07/06 09:25:04;;;;;;;5.00;1.07;;;19.60;52.70;;;;;;5016230;28;20466;-59
2022/07/06 09:27:32;;;;;;;2.13;1.20;;;19.70;51.80;;;;;;5016537;28;20431;-59
2022/07/06 09:30:02;;;;;;;5.80;1.50;;;19.80;51.40;;;;;;5014305;28;20487;-58
2022/07/06 09:32:30;;;;;;;2.73;0.90;;;19.80;51.20;;;;;;5010860;28;20981;-59
2022/07/06 09:34:57;;;;;;;4.40;1.40;;;19.80;50.60;;;;;;5004689;28;20848;-59
2022/07/06 09:37:24;;;;;;;3.17;1.23;;;19.70;50.50;;;;;;5008605;28;20504;-58
2022/07/06 09:39:52;;;;;;;4.23;1.27;;;19.70;50.80;;;;;;5015694;28;20492;-59
2022/07/06 09:42:26;;;;;;;3.43;1.10;;;19.60;50.60;;;;;;5015538;28;20477;-59
2022/07/06 09:44:54;;;;;;;2.60;1.20;;;19.60;50.70;;;;;;5015641;28;20428;-59
2022/07/06 09:47:23;;;;;;;2.60;0.77;;;19.50;50.90;;;;;;5015082;28;20454;-58
2022/07/06 09:49:50;;;;;;;9.10;0.93;;;19.60;51.00;;;;;;5015171;28;20571;-58
2022/07/06 09:52:18;;;;;;;2.73;1.23;;;19.70;50.30;;;;;;5015066;28;20532;-58
2022/07/06 09:54:50;;;;;;;4.40;1.37;;;19.70;50.00;;;;;;5014893;28;20454;-58
2022/07/06 09:57:17;;;;;;;2.43;0.90;;;19.70;49.60;;;;;;5013017;28;20543;-57
2022/07/06 09:59:52;;;;;;;3.20;1.23;;;19.80;49.50;;;;;;5007276;28;20470;-60
2022/07/06 10:02:23;;;;;;;1.93;1.10;;;20.00;49.00;;;;;;5014818;28;20441;-59
2022/07/06 10:04:52;;;;;;;5.03;1.00;;;20.20;48.70;;;;;;5013874;28;20458;-58
2022/07/06 10:07:22;;;;;;;4.57;0.80;;;20.40;48.30;;;;;;5013434;28;20546;-59
2022/07/06 10:09:49;;;;;;;1.90;0.93;;;20.60;47.80;;;;;;5011639;28;20889;-59
2022/07/06 10:12:18;;;;;;;2.37;0.90;;;20.80;47.10;;;;;;5013081;28;20620;-61
2022/07/06 10:14:46;;;;;;;2.50;1.37;;;20.90;46.30;;;;;;5013895;28;20482;-60
2022/07/06 10:17:14;;;;;;;3.23;1.23;;;20.90;45.60;;;;;;5013377;28;20480;-60
2022/07/06 10:19:43;;;;;;;2.33;0.90;;;21.10;45.60;;;;;;5014015;28;20543;-58
2022/07/06 10:22:12;;;;;;;2.00;1.20;;;21.20;45.00;;;;;;5014753;28;20494;-59
2022/07/06 10:24:43;;;;;;;1.87;0.90;;;21.20;44.40;;;;;;5014542;28;20474;-60
2022/07/06 10:27:11;;;;;;;3.17;1.20;;;21.20;43.60;;;;;;5014453;28;20469;-60
2022/07/06 10:29:39;;;;;;;3.23;1.03;;;21.10;43.80;;;;;;5014180;28;20485;-58
2022/07/06 10:32:08;;;;;;;2.13;1.00;;;21.20;43.90;;;;;;5014708;28;20797;-58
2022/07/06 10:34:36;;;;;;;2.47;1.00;;;21.20;43.70;;;;;;5013324;28;20510;-59
2022/07/06 10:37:05;;;;;;;3.37;1.40;;;21.20;43.80;;;;;;5013889;28;20463;-58
2022/07/06 10:42:53;;;;;;;4.03;1.57;;;20.70;43.70;;;;;;5014014;28;20754;-58
2022/07/06 10:45:42;;;;;;;1.77;1.40;;;20.70;43.70;;;;;;5013902;28;20475;-59
2022/07/06 10:48:18;;;;;;;2.30;0.80;;;20.60;43.30;;;;;;5012849;28;20847;-58
2022/07/06 10:50:49;;;;;;;1.53;0.90;;;20.40;43.40;;;;;;5013180;28;20951;-58
2022/07/06 10:53:18;;;;;;;3.17;1.10;;;20.40;43.60;;;;;;5013308;28;20502;-58
2022/07/06 10:55:50;;;;;;;3.03;1.33;;;20.30;43.60;;;;;;5012242;28;20471;-60
2022/07/06 10:58:36;;;;;;;2.70;1.50;;;20.20;43.50;;;;;;5013525;28;20434;-59
2022/07/06 11:01:05;;;;;;;2.30;0.93;;;20.30;43.40;;;;;;5015482;28;20423;-59
2022/07/06 11:03:34;;;;;;;1.43;0.70;;;20.40;43.10;;;;;;5015456;28;20474;-60
2022/07/06 11:06:03;;;;;;;1.90;1.00;;;20.50;43.30;;;;;;5014167;28;20447;-58
2022/07/06 11:08:54;;;;;;;2.53;0.70;;;20.60;42.50;;;;;;5015265;28;20450;-58
2022/07/06 11:11:24;;;;;;;3.30;0.80;;;20.70;42.20;;;;;;5013777;28;20481;-58
2022/07/06 11:13:59;;;;;;;2.00;1.10;;;20.80;42.00;;;;;;5013805;28;20525;-58
2022/07/06 11:16:28;;;;;;;3.00;0.97;;;21.00;41.70;;;;;;5004410;28;20467;-59
2022/07/06 11:19:07;;;;;;;2.30;0.70;;;21.10;41.50;;;;;;5013081;28;20451;-57
2022/07/06 11:21:37;;;;;;;2.00;0.80;;;21.00;41.80;;;;;;5013114;28;20907;-59
2022/07/06 11:24:08;;;;;;;1.97;1.10;;;20.80;42.00;;;;;;5013151;28;20472;-59
2022/07/06 11:26:37;;;;;;;1.80;1.00;;;20.80;42.20;;;;;;5012992;28;20533;-57
2022/07/06 11:29:06;;;;;;;2.37;1.07;;;20.70;42.30;;;;;;5013437;28;20448;-57
2022/07/06 11:31:36;;;;;;;1.60;1.10;;;20.60;42.80;;;;;;5012387;28;20853;-59
2022/07/06 11:34:04;;;;;;;3.03;1.03;;;20.50;43.20;;;;;;5012877;28;20514;-59
2022/07/06 11:36:32;;;;;;;6.13;1.10;;;20.40;43.50;;;;;;5013882;28;20892;-59
2022/07/06 11:39:00;;;;;;;2.43;0.73;;;20.20;43.90;;;;;;5012124;28;20977;-58
2022/07/06 11:41:28;;;;;;;7.93;1.47;;;20.00;44.10;;;;;;5011781;28;21022;-58
2022/07/06 11:43:56;;;;;;;3.20;1.03;;;19.90;44.30;;;;;;5010367;28;20490;-61
2022/07/06 11:46:25;;;;;;;3.80;1.63;;;19.90;44.50;;;;;;5013423;28;20499;-59
2022/07/06 11:48:54;;;;;;;7.80;1.90;;;20.00;44.30;;;;;;5012983;28;20442;-59
2022/07/06 11:51:22;;;;;;;2.13;1.30;;;20.00;44.00;;;;;;5011740;28;20492;-60
2022/07/06 11:53:51;;;;;;;4.30;0.83;;;20.10;43.90;;;;;;5011371;28;20517;-60
2022/07/06 11:56:21;;;;;;;1.70;0.87;;;20.20;43.30;;;;;;5011270;28;20933;-61
2022/07/06 11:58:51;;;;;;;2.37;0.80;;;20.20;43.10;;;;;;5013129;28;20446;-60
2022/07/06 12:01:18;;;;;;;2.90;1.00;;;20.00;43.10;;;;;;5013013;28;20453;-61
2022/07/06 12:03:46;;;;;;;2.50;1.37;;;19.90;43.10;;;;;;5013319;28;20497;-61
2022/07/06 12:06:19;;;;;;;3.63;1.27;;;19.90;43.40;;;;;;5013642;28;20446;-61
2022/07/06 12:08:47;;;;;;;1.50;1.20;;;19.80;43.80;;;;;;5009709;28;20532;-61
2022/07/06 12:11:23;;;;;;;2.87;1.50;;;19.60;44.30;;;;;;5013129;28;20478;-61
2022/07/06 12:13:52;;;;;;;2.93;1.23;;;19.40;44.60;;;;;;5012611;28;20996;-60
2022/07/06 12:16:22;;;;;;;2.40;1.23;;;19.40;45.00;;;;;;5012688;28;20450;-60
2022/07/06 12:18:50;;;;;;;5.10;1.63;;;19.40;45.10;;;;;;5012399;28;20457;-61
2022/07/06 12:21:21;;;;;;;5.20;1.63;;;19.60;45.20;;;;;;5012705;28;20500;-60
2022/07/06 12:23:50;;;;;;;3.57;1.60;;;19.70;44.90;;;;;;5013657;28;20470;-58
2022/07/06 12:26:20;;;;;;;1.73;0.97;;;20.00;44.70;;;;;;5013240;28;20453;-61
2022/07/06 12:28:48;;;;;;;7.13;1.23;;;20.30;44.30;;;;;;5014396;28;20534;-60
2022/07/06 12:31:35;;;;;;;4.43;1.03;;;20.70;43.70;;;;;;5017245;28;20481;-62
2022/07/06 12:34:03;;;;;;;2.13;0.80;;;20.90;43.00;;;;;;5018550;28;20471;-60
2022/07/06 12:36:30;;;;;;;2.00;0.80;;;21.20;42.70;;;;;;5018342;28;20451;-60
2022/07/06 12:38:57;;;;;;;1.70;0.90;;;21.40;42.10;;;;;;5017793;28;20518;-59
2022/07/06 12:41:30;;;;;;;2.37;0.90;;;21.50;41.90;;;;;;5018920;28;20496;-60
2022/07/06 12:44:07;;;;;;;1.20;0.87;;;21.50;42.00;;;;;;5017419;28;20550;-61
2022/07/06 12:46:38;;;;;;;1.17;0.73;;;21.40;42.10;;;;;;5017562;28;20442;-61
2022/07/06 12:49:13;;;;;;;3.27;1.20;;;21.30;42.20;;;;;;5016966;28;20430;-61
2022/07/06 12:51:58;;;;;;;2.77;0.80;;;21.20;42.30;;;;;;5017423;28;20470;-60
2022/07/06 12:54:28;;;;;;;2.80;0.97;;;21.20;42.50;;;;;;5017660;28;20480;-59
2022/07/06 12:57:01;;;;;;;1.47;0.97;;;21.30;42.40;;;;;;5017197;28;20785;-60
2022/07/06 12:59:29;;;;;;;1.20;0.60;;;21.50;41.70;;;;;;5017772;28;20454;-60
2022/07/06 13:01:58;;;;;;;0.73;0.57;;;21.70;40.90;;;;;;5017876;28;20448;-59
2022/07/06 13:04:28;;;;;;;0.87;0.60;;;22.00;39.90;;;;;;5016613;28;20478;-61